createdAt,value
2022-11-03T00:01:46.573Z,10.73
2022-11-03T00:04:15.510Z,11.95
2022-11-03T00:06:43.150Z,10.05
2022-11-03T00:09:12.518Z,11.10
2022-11-03T00:11:40.882Z,13.00
2022-11-03T00:14:09.304Z,11.30
2022-11-03T00:16:36.478Z,12.20
2022-11-03T00:19:03.398Z,10.65
2022-11-03T00:21:30.518Z,12.82
2022-11-03T00:23:57.094Z,10.73
2022-11-03T00:26:28.145Z,13.50
2022-11-03T00:28:56.977Z,12.38
2022-11-03T00:31:26.354Z,13.23
2022-11-03T00:33:54.174Z,11.38
2022-11-03T00:36:23.183Z,10.13
2022-11-03T00:38:49.822Z,11.85
2022-11-03T00:41:17.174Z,11.25
2022-11-03T00:43:43.801Z,11.35
2022-11-03T00:46:10.657Z,13.48
2022-11-03T00:48:40.523Z,11.52
2022-11-03T00:51:19.017Z,11.52
2022-11-03T00:53:53.961Z,14.25
2022-11-03T00:56:27.635Z,10.73
2022-11-03T00:58:55.251Z,9.52
2022-11-03T01:01:24.321Z,11.38
2022-11-03T01:04:12.432Z,10.35
2022-11-03T01:06:50.673Z,11.50
2022-11-03T01:09:28.888Z,9.10
2022-11-03T01:12:00.172Z,10.63
2022-11-03T01:14:33.373Z,9.65
2022-11-03T01:17:00.230Z,12.05
2022-11-03T01:19:26.941Z,10.05
2022-11-03T01:21:54.195Z,9.10
2022-11-03T01:24:21.740Z,11.52
2022-11-03T01:26:48.682Z,10.23
2022-11-03T01:29:15.452Z,10.63
2022-11-03T01:31:42.202Z,9.35
2022-11-03T01:34:20.846Z,9.43
2022-11-03T01:36:47.926Z,9.65
2022-11-03T01:39:17.655Z,8.43
2022-11-03T01:41:46.640Z,9.82
2022-11-03T01:44:13.046Z,9.50
2022-11-03T01:47:12.074Z,8.73
2022-11-03T01:49:54.825Z,8.25
2022-11-03T01:52:27.868Z,9.25
2022-11-03T01:55:04.945Z,9.48
2022-11-03T01:57:37.807Z,11.07
2022-11-03T02:00:06.594Z,12.57
2022-11-03T02:02:35.805Z,9.00
2022-11-03T02:05:04.792Z,10.23
2022-11-03T02:07:38.358Z,11.32
2022-11-03T02:10:06.092Z,7.72
2022-11-03T02:12:33.769Z,8.98
2022-11-03T02:15:08.183Z,10.00
2022-11-03T02:17:36.408Z,11.65
2022-11-03T02:20:12.311Z,9.68
2022-11-03T02:22:50.803Z,10.82
2022-11-03T02:25:43.557Z,10.60
2022-11-03T02:28:12.199Z,10.90
2022-11-03T02:31:08.457Z,13.73
2022-11-03T02:33:59.701Z,10.13
2022-11-03T02:36:44.902Z,7.72
2022-11-03T02:39:34.820Z,10.30
2022-11-03T02:42:04.548Z,9.88
2022-11-03T02:44:33.413Z,9.07
2022-11-03T02:47:04.089Z,10.13
2022-11-03T02:49:30.599Z,12.23
2022-11-03T02:52:05.282Z,8.73
2022-11-03T02:54:47.808Z,14.80
2022-11-03T02:57:25.783Z,9.68
2022-11-03T03:00:12.902Z,9.07
2022-11-03T03:02:43.300Z,8.27
2022-11-03T03:05:12.154Z,10.13
2022-11-03T03:07:44.536Z,10.98
2022-11-03T03:10:23.786Z,9.65
2022-11-03T03:12:54.583Z,8.93
2022-11-03T03:15:28.729Z,10.65
2022-11-03T03:18:07.834Z,11.13
2022-11-03T03:20:39.852Z,9.32
2022-11-03T03:23:16.866Z,9.05
2022-11-03T03:25:49.748Z,11.32
2022-11-03T03:28:32.482Z,7.85
2022-11-03T03:31:11.864Z,10.13
2022-11-03T03:33:42.109Z,11.05
2022-11-03T03:36:15.796Z,7.80
2022-11-03T03:38:49.435Z,8.68
2022-11-03T03:41:22.005Z,7.50
2022-11-03T03:43:55.659Z,9.15
2022-11-03T03:46:25.491Z,8.98
2022-11-03T03:48:51.979Z,8.13
2022-11-03T03:51:22.764Z,8.70
2022-11-03T03:53:53.491Z,8.25
2022-11-03T03:56:43.526Z,9.20
2022-11-03T03:59:10.032Z,9.32
2022-11-03T04:01:36.716Z,8.25
2022-11-03T04:04:03.423Z,9.98
2022-11-03T04:06:30.175Z,10.43
2022-11-03T04:08:56.732Z,7.90
2022-11-03T04:11:41.688Z,12.70
2022-11-03T04:14:28.506Z,7.90
2022-11-03T04:17:13.889Z,10.02
2022-11-03T04:19:58.879Z,9.70
2022-11-03T04:22:30.969Z,11.27
2022-11-03T04:24:58.467Z,9.57
2022-11-03T04:27:24.869Z,9.50
2022-11-03T04:29:52.695Z,10.18
2022-11-03T04:32:19.129Z,10.52
2022-11-03T04:34:47.422Z,8.13
2022-11-03T04:37:15.071Z,9.48
2022-11-03T04:39:41.978Z,10.32
2022-11-03T04:42:20.723Z,9.38
2022-11-03T04:44:49.012Z,11.20
2022-11-03T04:47:17.664Z,8.60
2022-11-03T04:49:46.806Z,9.48
2022-11-03T04:52:16.980Z,10.52
2022-11-03T04:54:44.894Z,10.57
2022-11-03T04:57:18.877Z,11.13
2022-11-03T04:59:49.612Z,10.65
2022-11-03T05:02:22.024Z,11.00
2022-11-03T05:04:48.617Z,12.02
2022-11-03T05:07:35.906Z,10.15
2022-11-03T05:10:04.454Z,9.75
2022-11-03T05:12:31.100Z,11.55
2022-11-03T05:14:58.917Z,10.05
2022-11-03T05:17:27.718Z,12.13
2022-11-03T05:20:02.133Z,10.02
2022-11-03T05:22:34.234Z,11.02
2022-11-03T05:25:03.749Z,8.98
2022-11-03T05:27:30.504Z,13.00
2022-11-03T05:30:00.970Z,13.60
2022-11-03T05:32:33.073Z,10.50
2022-11-03T05:34:59.724Z,11.65
2022-11-03T05:37:32.700Z,11.15
2022-11-03T05:40:22.750Z,11.13
2022-11-03T05:42:58.998Z,12.43
2022-11-03T05:45:36.632Z,11.60
2022-11-03T05:48:14.024Z,12.90
2022-11-03T05:50:42.111Z,12.10
2022-11-03T05:53:23.819Z,12.27
2022-11-03T05:55:50.585Z,12.80
2022-11-03T05:58:23.106Z,10.98
2022-11-03T06:00:50.009Z,11.07
2022-11-03T06:03:21.365Z,13.30
2022-11-03T06:05:47.893Z,19.17
2022-11-03T06:08:25.510Z,11.65
2022-11-03T06:13:38.502Z,17.88
2022-11-03T06:16:31.829Z,13.05
2022-11-03T06:19:01.826Z,9.45
2022-11-03T06:21:28.612Z,10.00
2022-11-03T06:23:55.167Z,11.32
2022-11-03T06:26:25.243Z,10.88
2022-11-03T06:28:51.817Z,9.63
2022-11-03T06:31:23.162Z,10.35
2022-11-03T06:33:51.780Z,10.82
2022-11-03T06:36:37.260Z,9.02
2022-11-03T06:39:13.622Z,14.30
2022-11-03T06:41:40.062Z,10.48
2022-11-03T06:44:28.397Z,11.27
2022-11-03T06:46:59.993Z,11.95
2022-11-03T06:49:33.145Z,14.85
2022-11-03T06:52:11.896Z,14.45
2022-11-03T06:54:40.332Z,14.82
2022-11-03T06:57:14.344Z,9.25
2022-11-03T06:59:40.810Z,8.77
2022-11-03T07:02:37.537Z,9.95
2022-11-03T07:05:17.740Z,14.30
2022-11-03T07:07:44.178Z,10.65
2022-11-03T07:10:11.025Z,11.20
2022-11-03T07:12:37.692Z,11.10
2022-11-03T07:15:16.375Z,11.48
2022-11-03T07:17:42.748Z,10.48
2022-11-03T07:20:16.944Z,9.05
2022-11-03T07:22:45.770Z,9.93
2022-11-03T07:25:21.043Z,10.88
2022-11-03T07:27:55.030Z,12.73
2022-11-03T07:30:33.776Z,11.30
2022-11-03T07:33:12.549Z,12.07
2022-11-03T07:38:33.309Z,10.07
2022-11-03T07:41:00.244Z,12.85
2022-11-03T07:43:35.974Z,9.02
2022-11-03T07:46:04.041Z,9.27
2022-11-03T07:48:39.154Z,10.80
2022-11-03T07:51:17.664Z,9.95
2022-11-03T07:53:47.653Z,13.77
2022-11-03T07:56:20.274Z,9.02
2022-11-03T07:58:49.741Z,9.60
2022-11-03T08:01:37.126Z,10.57
2022-11-03T08:04:06.706Z,11.18
2022-11-03T08:06:33.414Z,12.35
2022-11-03T08:09:00.026Z,7.85
2022-11-03T08:11:29.264Z,8.43
2022-11-03T08:13:56.959Z,10.13
2022-11-03T08:16:24.167Z,7.68
2022-11-03T08:18:50.861Z,8.00
2022-11-03T08:21:17.460Z,8.48
2022-11-03T08:23:47.300Z,6.45
2022-11-03T08:26:14.761Z,8.40
2022-11-03T08:28:41.213Z,7.70
2022-11-03T08:31:12.287Z,6.35
2022-11-03T08:33:40.050Z,6.72
2022-11-03T08:36:11.868Z,5.28
2022-11-03T08:38:38.888Z,36.17
2022-11-03T08:41:05.600Z,11.60
2022-11-03T08:43:32.381Z,22.05
2022-11-03T08:46:08.362Z,7.53
2022-11-03T08:48:39.998Z,4.80
2022-11-03T08:51:08.364Z,5.97
2022-11-03T08:53:35.392Z,6.55
2022-11-03T08:56:02.695Z,7.47
2022-11-03T08:58:29.343Z,6.90
2022-11-03T09:00:55.861Z,4.72
2022-11-03T09:03:22.645Z,4.18
2022-11-03T09:05:49.933Z,5.43
2022-11-03T09:11:03.499Z,4.90
2022-11-03T09:13:30.054Z,5.18
2022-11-03T09:15:56.722Z,5.22
2022-11-03T09:18:23.258Z,4.60
2022-11-03T09:20:50.305Z,6.32
2022-11-03T09:23:19.269Z,4.80
2022-11-03T09:25:45.811Z,4.38
2022-11-03T09:28:14.690Z,4.57
2022-11-03T09:30:41.237Z,4.78
2022-11-03T09:33:07.623Z,5.97
2022-11-03T09:35:34.126Z,6.18
2022-11-03T09:38:00.852Z,9.27
2022-11-03T09:40:27.477Z,6.75
2022-11-03T09:42:54.191Z,5.38
2022-11-03T09:45:20.702Z,4.15
2022-11-03T09:47:47.311Z,11.80
2022-11-03T09:50:17.357Z,23.77
2022-11-03T09:52:50.325Z,7.93
2022-11-03T09:55:24.101Z,4.63
2022-11-03T09:57:52.918Z,4.55
2022-11-03T10:00:21.324Z,5.28
2022-11-03T10:02:49.619Z,7.05
2022-11-03T10:05:25.349Z,6.60
2022-11-03T10:07:58.145Z,6.93
2022-11-03T10:10:25.188Z,6.75
2022-11-03T10:12:55.893Z,6.60
2022-11-03T10:15:24.812Z,6.60
2022-11-03T10:17:52.146Z,7.57
2022-11-03T10:20:21.520Z,7.15
2022-11-03T10:22:53.165Z,8.18
2022-11-03T10:25:42.504Z,8.35
2022-11-03T10:28:18.113Z,9.02
2022-11-03T10:31:11.797Z,7.50
2022-11-03T10:33:41.349Z,8.80
2022-11-03T10:36:17.100Z,19.15
2022-11-03T10:38:44.379Z,7.78
2022-11-03T10:41:13.903Z,7.53
2022-11-03T10:43:42.304Z,7.22
2022-11-03T10:46:50.167Z,6.18
2022-11-03T10:49:12.495Z,10.00
2022-11-03T10:51:39.776Z,8.77
2022-11-03T10:54:11.659Z,9.52
2022-11-03T10:56:38.666Z,10.05
2022-11-03T10:59:05.277Z,7.68
2022-11-03T11:01:32.114Z,6.82
2022-11-03T11:03:59.091Z,6.97
2022-11-03T11:06:29.884Z,9.07
2022-11-03T11:11:30.942Z,7.03
2022-11-03T11:14:23.956Z,8.40
2022-11-03T11:16:53.346Z,14.18
2022-11-03T11:19:22.466Z,9.65
2022-11-03T11:21:49.530Z,6.53
2022-11-03T11:24:44.525Z,7.85
2022-11-03T11:27:32.766Z,7.45
2022-11-03T11:30:00.509Z,7.50
2022-11-03T11:32:39.246Z,6.82
2022-11-03T11:35:26.222Z,9.07
2022-11-03T11:37:54.310Z,8.48
2022-11-03T11:40:23.609Z,6.93
2022-11-03T11:43:13.208Z,7.20
2022-11-03T11:46:17.210Z,9.07
2022-11-03T11:48:43.911Z,9.20
2022-11-03T11:51:12.265Z,6.55
2022-11-03T11:53:44.849Z,7.07
2022-11-03T11:56:13.970Z,7.68
2022-11-03T11:58:49.402Z,8.18
2022-11-03T12:01:30.816Z,8.95
2022-11-03T12:04:00.677Z,10.10
2022-11-03T12:06:39.025Z,7.25
2022-11-03T12:09:23.512Z,7.72
2022-11-03T12:11:56.443Z,7.15
2022-11-03T12:14:34.355Z,8.50
2022-11-03T12:17:16.075Z,7.45
2022-11-03T12:19:52.614Z,8.50
2022-11-03T12:22:26.179Z,7.95
2022-11-03T12:25:00.863Z,13.82
2022-11-03T12:27:27.320Z,9.18
2022-11-03T12:29:55.813Z,9.38
2022-11-03T12:32:33.936Z,9.38
2022-11-03T12:35:06.548Z,6.60
2022-11-03T12:37:33.044Z,8.70
2022-11-03T12:39:59.617Z,8.60
2022-11-03T12:42:28.200Z,7.93
2022-11-03T12:44:55.977Z,7.65
2022-11-03T12:47:22.687Z,10.38
2022-11-03T12:49:49.533Z,10.50
2022-11-03T12:52:22.059Z,8.90
2022-11-03T12:54:49.130Z,8.45
2022-11-03T12:57:15.939Z,9.80
2022-11-03T12:59:42.773Z,11.73
2022-11-03T13:02:10.862Z,7.40
2022-11-03T13:04:38.190Z,7.90
2022-11-03T13:07:04.992Z,8.63
2022-11-03T13:09:32.132Z,8.60
2022-11-03T13:12:17.269Z,10.90
2022-11-03T13:14:46.148Z,6.50
2022-11-03T13:17:14.456Z,7.90
2022-11-03T13:19:41.112Z,9.63
2022-11-03T13:22:07.583Z,10.55
2022-11-03T13:24:34.066Z,8.68
2022-11-03T13:27:00.529Z,9.75
2022-11-03T13:29:31.064Z,8.43
2022-11-03T13:32:00.780Z,7.30
2022-11-03T13:34:27.200Z,8.07
2022-11-03T13:36:53.830Z,9.43
2022-11-03T13:39:21.184Z,8.40
2022-11-03T13:41:48.037Z,7.63
2022-11-03T13:44:14.617Z,11.65
2022-11-03T13:46:41.110Z,9.02
2022-11-03T13:51:54.237Z,8.07
2022-11-03T13:59:53.999Z,7.28
2022-11-03T14:05:11.240Z,8.95
2022-11-03T14:07:38.147Z,8.38
2022-11-03T14:10:08.120Z,8.68
2022-11-03T14:12:36.170Z,10.35
2022-11-03T14:15:06.917Z,10.95
2022-11-03T14:20:04.145Z,7.85
2022-11-03T14:22:31.958Z,15.55
2022-11-03T14:24:59.536Z,12.70
2022-11-03T14:27:26.357Z,7.00
2022-11-03T14:29:53.531Z,9.07
2022-11-03T14:32:21.352Z,8.60
2022-11-03T14:34:51.213Z,10.60
2022-11-03T14:37:18.177Z,9.00
2022-11-03T14:39:46.339Z,8.82
2022-11-03T14:42:17.251Z,9.43
2022-11-03T14:44:46.080Z,18.95
2022-11-03T14:47:15.849Z,10.57
2022-11-03T14:49:42.370Z,11.25
2022-11-03T14:52:09.039Z,48.15
2022-11-03T14:54:39.117Z,9.90
2022-11-03T14:57:06.023Z,12.88
2022-11-03T14:59:32.513Z,9.50
2022-11-03T15:01:59.639Z,10.40
2022-11-03T15:04:26.871Z,16.10
2022-11-03T15:06:54.379Z,12.40
2022-11-03T15:09:20.771Z,10.93
2022-11-03T15:11:47.337Z,11.38
2022-11-03T15:14:14.528Z,10.68
2022-11-03T15:16:41.148Z,10.20
2022-11-03T15:19:08.865Z,9.48
2022-11-03T15:21:35.599Z,11.23
2022-11-03T15:26:49.370Z,11.00
2022-11-03T15:29:15.997Z,10.52
2022-11-03T15:31:47.472Z,10.60
2022-11-03T15:34:15.214Z,10.52
2022-11-03T15:36:41.734Z,11.00
2022-11-03T15:39:08.228Z,10.77
2022-11-03T15:41:34.701Z,11.40
2022-11-03T15:44:01.434Z,10.02
2022-11-03T15:46:31.060Z,9.88
2022-11-03T15:48:57.932Z,11.10
2022-11-03T15:51:25.487Z,13.70
2022-11-03T15:53:57.914Z,11.90
2022-11-03T15:56:26.483Z,9.13
2022-11-03T15:58:54.292Z,14.57
2022-11-03T16:01:21.471Z,10.95
2022-11-03T16:03:48.222Z,13.93
2022-11-03T16:06:14.872Z,13.93
2022-11-03T16:08:41.560Z,18.48
2022-11-03T16:11:09.176Z,20.60
2022-11-03T16:13:37.744Z,13.95
2022-11-03T16:16:04.772Z,21.52
2022-11-03T16:18:31.472Z,21.38
2022-11-03T16:21:01.343Z,15.13
2022-11-03T16:23:30.586Z,14.48
2022-11-03T16:26:05.193Z,15.95
2022-11-03T16:28:31.943Z,11.95
2022-11-03T16:30:58.771Z,17.50
2022-11-03T16:33:25.458Z,14.25
2022-11-03T16:35:52.675Z,23.35
2022-11-03T16:38:19.295Z,17.88
2022-11-03T16:40:47.874Z,17.75
2022-11-03T16:43:14.412Z,22.08
2022-11-03T16:45:40.897Z,21.00
2022-11-03T16:48:12.703Z,19.75
2022-11-03T16:50:41.542Z,15.63
2022-11-03T16:53:11.138Z,17.88
2022-11-03T16:55:37.909Z,25.95
2022-11-03T16:58:04.435Z,18.17
2022-11-03T17:00:31.291Z,25.95
2022-11-03T17:02:59.747Z,19.75
2022-11-03T17:05:27.073Z,16.10
2022-11-03T17:07:54.410Z,21.50
2022-11-03T17:10:22.346Z,14.88
2022-11-03T17:12:49.818Z,14.30
2022-11-03T17:15:17.341Z,15.88
2022-11-03T17:17:44.264Z,18.00
2022-11-03T17:20:12.157Z,16.65
2022-11-03T17:22:39.127Z,15.27
2022-11-03T17:25:07.959Z,22.83
2022-11-03T17:27:42.003Z,17.90
2022-11-03T17:30:31.986Z,18.48
2022-11-03T17:33:05.398Z,17.48
2022-11-03T17:35:41.936Z,17.52
2022-11-03T17:38:15.394Z,18.10
2022-11-03T17:40:44.363Z,19.75
2022-11-03T17:43:31.252Z,17.42
2022-11-03T17:45:57.734Z,16.35
2022-11-03T17:48:24.279Z,15.40
2022-11-03T17:50:53.648Z,16.40
2022-11-03T17:53:23.359Z,17.33
2022-11-03T17:56:08.740Z,19.08
2022-11-03T17:58:43.210Z,21.35
2022-11-03T18:01:15.184Z,15.98
2022-11-03T18:03:41.956Z,16.48
2022-11-03T18:06:18.959Z,17.67
2022-11-03T18:08:49.184Z,19.83
2022-11-03T18:11:41.029Z,17.83
2022-11-03T18:14:07.507Z,19.45
2022-11-03T18:16:34.564Z,27.95
2022-11-03T18:19:01.055Z,15.60
2022-11-03T18:21:29.756Z,15.45
2022-11-03T18:23:56.251Z,19.95
2022-11-03T18:26:25.610Z,19.77
2022-11-03T18:28:52.481Z,17.17
2022-11-03T18:31:34.495Z,16.10
2022-11-03T18:34:09.760Z,16.35
2022-11-03T18:36:37.959Z,18.30
2022-11-03T18:39:04.644Z,31.25
2022-11-03T18:41:39.168Z,21.27
2022-11-03T18:44:29.181Z,19.05
2022-11-03T18:46:56.207Z,15.98
2022-11-03T18:49:24.719Z,16.98
2022-11-03T18:52:00.917Z,19.60
2022-11-03T18:54:30.644Z,16.55
2022-11-03T18:56:57.634Z,21.52
2022-11-03T18:59:31.728Z,14.85
2022-11-03T19:01:58.221Z,25.90
2022-11-03T19:04:24.819Z,17.05
2022-11-03T19:06:52.849Z,19.17
2022-11-03T19:09:22.621Z,13.80
2022-11-03T19:11:50.232Z,19.98
2022-11-03T19:14:23.714Z,15.57
2022-11-03T19:17:21.306Z,13.80
2022-11-03T19:19:39.282Z,13.70
2022-11-03T19:22:11.876Z,15.77
2022-11-03T19:24:38.544Z,11.95
2022-11-03T19:27:06.606Z,34.50
2022-11-03T19:29:38.432Z,11.80
2022-11-03T19:32:05.893Z,16.63
2022-11-03T19:34:35.231Z,16.52
2022-11-03T19:37:01.742Z,15.15
2022-11-03T19:39:37.074Z,16.63
2022-11-03T19:42:36.798Z,17.55
2022-11-03T19:45:10.804Z,15.35
2022-11-03T19:47:47.879Z,14.85
2022-11-03T19:50:23.221Z,18.17
2022-11-03T19:52:50.254Z,13.00
2022-11-03T19:55:19.358Z,13.98
2022-11-03T19:57:45.855Z,15.80
2022-11-03T20:00:17.404Z,13.85
2022-11-03T20:02:44.983Z,12.27
2022-11-03T20:05:15.124Z,15.07
2022-11-03T20:07:43.453Z,14.00
2022-11-03T20:10:17.847Z,14.18
2022-11-03T20:12:45.285Z,13.10
2022-11-03T20:15:16.336Z,12.05
2022-11-03T20:17:44.552Z,15.68
2022-11-03T20:20:20.086Z,11.95
2022-11-03T20:22:49.770Z,11.25
2022-11-03T20:25:20.936Z,10.05
2022-11-03T20:27:47.774Z,12.73
2022-11-03T20:30:17.221Z,12.75
2022-11-03T20:32:46.000Z,14.63
2022-11-03T20:35:23.127Z,13.25
2022-11-03T20:37:53.136Z,16.88
2022-11-03T20:40:22.540Z,21.92
2022-11-03T20:42:51.676Z,13.73
2022-11-03T20:45:20.527Z,15.90
2022-11-03T20:47:48.434Z,13.25
2022-11-03T20:50:16.729Z,11.93
2022-11-03T20:52:44.384Z,11.70
2022-11-03T20:55:24.984Z,14.20
2022-11-03T20:57:54.738Z,13.45
2022-11-03T21:00:27.174Z,11.48
2022-11-03T21:02:55.480Z,12.52
2022-11-03T21:05:27.582Z,11.75
2022-11-03T21:07:55.630Z,15.30
2022-11-03T21:10:23.633Z,15.25
2022-11-03T21:12:57.670Z,16.88
2022-11-03T21:16:03.618Z,15.65
2022-11-03T21:18:48.806Z,23.27
2022-11-03T21:21:20.809Z,16.65
2022-11-03T21:23:47.715Z,16.92
2022-11-03T21:26:14.150Z,18.73
2022-11-03T21:28:41.305Z,20.30
2022-11-03T21:31:13.869Z,19.73
2022-11-03T21:33:40.362Z,24.33
2022-11-03T21:36:07.209Z,22.73
2022-11-03T21:38:33.668Z,22.73
2022-11-03T21:41:20.073Z,22.42
2022-11-03T21:44:05.664Z,22.00
2022-11-03T21:46:32.135Z,25.70
2022-11-03T21:49:17.084Z,27.98
2022-11-03T21:51:43.511Z,27.40
2022-11-03T21:54:09.899Z,29.00
2022-11-03T21:56:36.265Z,33.67
2022-11-03T21:59:02.788Z,31.02
2022-11-03T22:01:29.282Z,29.65
2022-11-03T22:03:58.215Z,30.20
2022-11-03T22:06:24.575Z,35.97
2022-11-03T22:08:52.351Z,41.95
2022-11-03T22:11:21.598Z,24.65
2022-11-03T22:13:59.433Z,33.72
2022-11-03T22:16:42.347Z,28.08
2022-11-03T22:19:38.468Z,28.02
2022-11-03T22:22:29.253Z,27.48
2022-11-03T22:25:14.317Z,30.80
2022-11-03T22:27:41.578Z,24.13
2022-11-03T22:30:27.338Z,27.20
2022-11-03T22:32:55.855Z,24.98
2022-11-03T22:35:42.436Z,25.88
2022-11-03T22:38:14.535Z,26.55
2022-11-03T22:41:01.141Z,25.67
2022-11-03T22:43:46.152Z,24.35
2022-11-03T22:46:14.599Z,25.98
2022-11-03T22:48:41.558Z,22.20
2022-11-03T22:51:13.328Z,26.10
2022-11-03T22:53:58.881Z,23.23
2022-11-03T22:56:27.314Z,21.42
2022-11-03T22:58:54.185Z,21.10
2022-11-03T23:01:23.366Z,19.83
2022-11-03T23:03:50.263Z,23.35
2022-11-03T23:06:21.805Z,27.75
2022-11-03T23:08:49.653Z,24.10
2022-11-03T23:11:18.874Z,23.10
2022-11-03T23:13:53.877Z,25.90
2022-11-03T23:16:23.073Z,25.15
2022-11-03T23:19:08.094Z,20.85
2022-11-03T23:21:37.483Z,22.52
2022-11-03T23:24:23.099Z,23.60
2022-11-03T23:26:49.876Z,25.15
2022-11-03T23:29:16.959Z,22.35
2022-11-03T23:31:44.597Z,20.50
2022-11-03T23:34:12.454Z,21.92
2022-11-03T23:36:39.362Z,20.88
2022-11-03T23:39:06.381Z,23.40
2022-11-03T23:41:33.342Z,20.48
2022-11-03T23:43:59.872Z,24.70
2022-11-03T23:46:46.954Z,20.15
2022-11-03T23:49:14.405Z,25.00
2022-11-03T23:51:41.917Z,21.40
2022-11-03T23:54:10.387Z,23.15
2022-11-03T23:56:58.506Z,19.73
2022-11-03T23:59:26.401Z,24.85
